Time;durP1;ratioP1;P1;durP2;ratioP2;P2;SDS_P1;SDS_P2;PMS_P1;PMS_P2;Temp;Humidity;BMP_temperature;BMP_pressure;BME280_temperature;BME280_humidity;BME280_pressure;Samples;Min_cycle;Max_cycle;Signal;HPM_P1;HPM_P2
2023/03/04 00:00:05;;;;;;;28.40;16.70;;;;;;;0.57;84.83;100160.21;107449;1254;97007;-63
2023/03/04 00:03:06;;;;;;;28.80;16.70;;;;;;;0.61;84.87;100149.27;107476;1254;89607;-62
2023/03/04 00:05:43;;;;;;;28.70;17.70;;;;;;;0.60;84.88;100149.31;107451;1258;95544;-62
2023/03/04 00:08:23;;;;;;;31.40;19.20;;;;;;;0.59;85.03;100148.17;107466;1254;77692;-58
2023/03/04 00:11:03;;;;;;;32.10;19.10;;;;;;;0.63;84.77;100148.03;107464;1254;83085;-62
2023/03/04 00:13:38;;;;;;;32.90;19.10;;;;;;;0.64;84.93;100146.38;107453;1254;95325;-62
2023/03/04 00:16:21;;;;;;;34.30;19.20;;;;;;;0.63;84.79;100145.52;107450;1254;88607;-63
2023/03/04 00:18:57;;;;;;;;;;;;;;;0.66;84.73;100149.40;107452;1254;95200;-63
2023/03/04 00:21:41;;;;;;;31.80;18.20;;;;;;;0.66;84.90;100140.16;107444;1254;80439;-57
2023/03/04 00:24:25;;;;;;;30.90;17.60;;;;;;;0.67;84.94;100133.91;107436;1254;82169;-58
2023/03/04 00:27:05;;;;;;;30.30;16.90;;;;;;;0.70;84.94;100134.63;107401;1260;97604;-58
2023/03/04 00:29:52;;;;;;;29.20;16.60;;;;;;;0.73;84.80;100126.08;107450;1254;86884;-59
2023/03/04 00:32:32;;;;;;;29.70;17.60;;;;;;;0.71;84.98;100119.19;106816;1261;95490;-59
2023/03/04 00:35:11;;;;;;;32.20;18.00;;;;;;;0.75;84.96;100110.33;106818;1261;79081;-59
2023/03/04 00:37:53;;;;;;;31.70;17.50;;;;;;;0.78;84.93;100106.28;106890;1262;83348;-58
2023/03/04 00:40:33;;;;;;;35.80;18.90;;;;;;;0.79;84.82;100103.93;106822;1262;98175;-63
2023/03/04 00:43:13;;;;;;;32.00;17.90;;;;;;;0.79;84.86;100097.36;106846;1262;88611;-62
2023/03/04 00:45:58;;;;;;;33.10;18.30;;;;;;;0.80;84.84;100097.92;106808;1262;95081;-63
2023/03/04 00:48:39;;;;;;;32.60;17.10;;;;;;;0.80;84.80;100088.72;106845;1261;80985;-64
2023/03/04 00:51:25;;;;;;;34.70;17.20;;;;;;;0.80;84.95;100089.45;106834;1261;82365;-59
2023/03/04 00:54:08;;;;;;;32.80;18.40;;;;;;;0.82;84.89;100085.56;106822;1261;97734;-58
2023/03/04 00:56:55;;;;;;;34.10;17.90;;;;;;;0.87;84.94;100080.17;106843;1261;89916;-58
2023/03/04 00:59:36;;;;;;;35.00;17.90;;;;;;;0.89;85.01;100076.42;106880;1265;95579;-62
2023/03/04 01:02:13;;;;;;;33.80;18.50;;;;;;;0.89;84.92;100078.93;106827;1265;79967;-63
2023/03/04 01:04:50;;;;;;;37.50;18.20;;;;;;;0.89;84.93;100073.79;106875;1262;83154;-58
2023/03/04 01:07:24;;;;;;;36.10;18.30;;;;;;;0.89;84.88;100068.84;106862;1261;98538;-57
2023/03/04 01:10:08;;;;;;;38.00;18.50;;;;;;;0.87;84.74;100062.94;106878;1261;89530;-62
2023/03/04 01:12:51;;;;;;;36.80;18.50;;;;;;;0.83;84.83;100052.57;106843;1260;93693;-62
2023/03/04 01:15:38;;;;;;;36.80;18.40;;;;;;;0.82;84.92;100043.73;106853;1260;78630;-59
2023/03/04 01:18:20;;;;;;;37.00;17.90;;;;;;;0.85;84.85;100042.77;106859;1260;83200;-58
2023/03/04 01:21:05;;;;;;;33.10;18.00;;;;;;;0.86;84.81;100027.80;106869;1261;97948;-59
2023/03/04 01:23:51;;;;;;;42.00;19.00;;;;;;;0.86;84.82;100019.60;106824;1261;89483;-59
2023/03/04 01:26:31;;;;;;;33.80;17.50;;;;;;;0.85;84.69;100010.17;106870;1261;93578;-57
2023/03/04 01:29:07;;;;;;;33.00;17.80;;;;;;;0.83;84.65;99992.79;106777;1260;81566;-54
2023/03/04 01:31:51;;;;;;;32.30;18.00;;;;;;;0.81;84.69;99983.57;106862;1260;79831;-58
2023/03/04 01:34:36;;;;;;;32.30;17.40;;;;;;;0.80;84.59;99961.31;106849;1260;99001;-62
2023/03/04 01:37:23;;;;;;;32.70;17.20;;;;;;;0.79;84.68;99956.48;106825;1260;88229;-63
2023/03/04 01:40:06;;;;;;;35.80;17.30;;;;;;;0.81;84.58;99960.16;106817;1261;93042;-61
2023/03/04 01:42:47;;;;;;;34.60;18.90;;;;;;;0.80;84.58;99954.27;106863;1261;81309;-61
2023/03/04 01:45:26;;;;;;;36.90;18.60;;;;;;;0.84;84.59;99945.00;106860;1261;81606;-58
2023/03/04 01:48:08;;;;;;;34.20;18.80;;;;;;;0.85;84.62;99950.73;106891;1261;98540;-57
2023/03/04 01:50:47;;;;;;;38.20;19.90;;;;;;;0.83;84.67;99949.69;106839;1261;86757;-61
2023/03/04 01:53:28;;;;;;;33.80;17.60;;;;;;;0.80;84.64;99942.86;106744;1260;95515;-60
2023/03/04 01:56:19;;;;;;;34.70;17.80;;;;;;;0.79;84.55;99938.41;107094;1258;80850;-62
2023/03/04 01:59:17;;;;;;;30.30;17.60;;;;;;;0.78;84.69;99923.74;107093;1257;82709;-63
2023/03/04 02:02:01;;;;;;;32.40;17.60;;;;;;;0.76;84.67;99910.50;107095;1257;97755;-65
2023/03/04 02:04:42;;;;;;;31.50;16.90;;;;;;;0.80;84.71;99901.80;107110;1257;87772;-63
2023/03/04 02:07:28;;;;;;;35.20;18.60;;;;;;;0.80;84.73;99898.79;107062;1257;95196;-63
2023/03/04 02:10:10;;;;;;;29.60;16.90;;;;;;;0.83;84.85;99925.09;107100;1257;78391;-55
2023/03/04 02:12:56;;;;;;;34.30;17.90;;;;;;;0.83;84.92;99911.09;107112;1257;82560;-58
2023/03/04 02:15:40;;;;;;;35.90;18.30;;;;;;;0.84;84.93;99908.14;107089;1257;97863;-59
2023/03/04 02:18:20;;;;;;;36.10;17.90;;;;;;;0.83;84.90;99912.46;107105;1258;87888;-57
2023/03/04 02:21:07;;;;;;;38.50;18.30;;;;;;;0.85;84.93;99904.83;107084;1258;94695;-62
2023/03/04 02:23:57;;;;;;;32.50;17.50;;;;;;;0.83;84.89;99908.75;107078;1257;79075;-63
2023/03/04 02:26:42;;;;;;;34.90;18.10;;;;;;;0.84;84.86;99904.95;107089;1257;81843;-61
2023/03/04 02:29:33;;;;;;;33.80;16.80;;;;;;;0.82;85.05;99914.70;107061;1260;98604;-57
2023/03/04 02:32:19;;;;;;;36.90;18.70;;;;;;;0.83;85.10;99917.83;107106;1257;87746;-57
2023/03/04 02:35:06;;;;;;;35.10;17.30;;;;;;;0.89;85.15;99916.34;107072;1258;95102;-62
2023/03/04 02:37:53;;;;;;;35.30;18.30;;;;;;;0.93;85.10;99912.42;107102;1257;77647;-61
2023/03/04 02:40:30;;;;;;;;;;;;;;;0.93;85.21;99913.14;107152;1257;83025;-58
2023/03/04 02:43:09;;;;;;;30.90;18.30;;;;;;;0.95;85.21;99912.62;107113;1257;96317;-58
2023/03/04 02:45:49;;;;;;;35.50;18.40;;;;;;;0.94;85.19;99913.27;107093;1258;89164;-59
2023/03/04 02:48:24;;;;;;;37.80;18.70;;;;;;;0.94;85.16;99912.00;107082;1257;94402;-59
2023/03/04 02:51:04;;;;;;;38.10;19.60;;;;;;;0.93;85.15;99906.21;107113;1257;79002;-65
2023/03/04 02:53:40;;;;;;;36.50;19.50;;;;;;;0.95;85.17;99900.91;107089;1259;82207;-63
2023/03/04 02:56:20;;;;;;;37.20;19.70;;;;;;;0.97;85.23;99900.16;107121;1257;97560;-53
2023/03/04 02:58:57;;;;;;;39.40;20.10;;;;;;;1.00;85.30;99899.91;107068;1257;89339;-58
2023/03/04 03:01:36;;;;;;;36.40;19.50;;;;;;;0.98;85.28;99895.84;107071;1257;93966;-57
2023/03/04 03:04:22;;;;;;;37.80;19.20;;;;;;;1.01;85.41;99897.30;107055;1257;81504;-63
2023/03/04 03:07:07;;;;;;;36.60;19.60;;;;;;;1.06;85.32;99894.95;107065;1257;81548;-64
2023/03/04 03:09:52;;;;;;;35.40;20.10;;;;;;;1.05;85.40;99900.35;107071;1257;97327;-58
2023/03/04 03:12:37;;;;;;;37.10;19.80;;;;;;;1.06;85.34;99887.14;107059;1257;89635;-58
2023/03/04 03:15:16;;;;;;;34.40;18.20;;;;;;;1.07;85.35;99888.05;107085;1257;94134;-63
2023/03/04 03:17:55;;;;;;;34.80;18.90;;;;;;;1.08;85.31;99885.73;107061;1257;80486;-63
2023/03/04 03:20:34;;;;;;;34.60;19.60;;;;;;;1.09;85.27;99882.53;107098;1257;83209;-62
2023/03/04 03:23:13;;;;;;;41.40;21.10;;;;;;;1.11;85.27;99885.59;107098;1257;98635;-63
2023/03/04 03:25:55;;;;;;;31.40;18.40;;;;;;;1.14;85.27;99882.31;107106;1257;86357;-58
2023/03/04 03:28:40;;;;;;;32.90;19.20;;;;;;;1.12;85.34;99884.59;107099;1258;93598;-56
2023/03/04 03:31:28;;;;;;;34.80;19.30;;;;;;;1.14;85.38;99881.52;107101;1258;81242;-56
2023/03/04 03:34:06;;;;;;;30.10;17.80;;;;;;;1.15;85.40;99880.59;107119;1257;81088;-59
2023/03/04 03:36:48;;;;;;;36.60;19.40;;;;;;;1.18;85.37;99879.81;107100;1258;98591;-59
2023/03/04 03:39:31;;;;;;;34.40;18.70;;;;;;;1.23;85.33;99875.30;107094;1257;88414;-62
2023/03/04 03:42:14;;;;;;;35.50;19.90;;;;;;;1.27;85.28;99870.27;107097;1257;94320;-63
2023/03/04 03:44:54;;;;;;;37.40;19.70;;;;;;;1.28;85.33;99869.98;107071;1257;80741;-58
2023/03/04 03:47:35;;;;;;;33.00;18.60;;;;;;;1.26;85.22;99869.80;107081;1256;82521;-58
2023/03/04 03:50:14;;;;;;;32.00;18.30;;;;;;;1.19;85.38;99862.80;107022;1259;98203;-58
2023/03/04 03:52:59;;;;;;;35.00;20.10;;;;;;;1.18;85.28;99863.46;107062;1259;88080;-57
2023/03/04 03:55:38;;;;;;;35.40;18.90;;;;;;;1.23;85.35;99859.86;107031;1258;93482;-62
2023/03/04 03:58:17;;;;;;;34.40;19.10;;;;;;;1.23;85.41;99857.52;107023;1258;80824;-63
2023/03/04 04:01:01;;;;;;;33.00;18.10;;;;;;;1.28;85.50;99860.77;107071;1259;81131;-63
2023/03/04 04:03:42;;;;;;;32.20;19.40;;;;;;;1.33;85.41;99858.00;107057;1261;98944;-63
2023/03/04 04:06:20;;;;;;;34.80;19.00;;;;;;;1.35;85.42;99850.51;107033;1259;88366;-57
2023/03/04 04:08:57;;;;;;;33.60;20.80;;;;;;;1.37;85.36;99848.58;107047;1259;95917;-58
2023/03/04 04:11:34;;;;;;;33.90;19.20;;;;;;;1.38;85.28;99847.04;107071;1258;79311;-58
2023/03/04 04:14:15;;;;;;;34.30;18.20;;;;;;;1.35;85.25;99846.76;107043;1259;81634;-58
2023/03/04 04:16:51;;;;;;;35.50;20.40;;;;;;;1.36;85.21;99846.89;107012;1258;96721;-56
2023/03/04 04:19:29;;;;;;;33.60;18.60;;;;;;;1.37;85.30;99844.45;107072;1259;88546;-61
2023/03/04 04:22:07;;;;;;;33.80;19.70;;;;;;;1.40;85.21;99848.92;107053;1259;94632;-62
2023/03/04 04:24:47;;;;;;;35.00;19.40;;;;;;;1.43;85.13;99843.74;107072;1261;79437;-63
2023/03/04 04:27:32;;;;;;;31.60;19.90;;;;;;;1.45;85.15;99840.69;107061;1259;83042;-63
2023/03/04 04:30:09;;;;;;;31.70;19.00;;;;;;;1.48;85.21;99839.19;107045;1259;98049;-62
2023/03/04 04:32:52;;;;;;;33.60;18.90;;;;;;;1.49;85.08;99835.17;107044;1259;88890;-62
2023/03/04 04:35:34;;;;;;;29.30;17.20;;;;;;;1.51;84.99;99837.14;107045;1259;93356;-63
2023/03/04 04:38:16;;;;;;;30.70;17.70;;;;;;;1.51;84.92;99839.43;107051;1259;81019;-65
2023/03/04 04:40:58;;;;;;;30.70;18.10;;;;;;;1.51;84.89;99836.17;106753;1259;410338;-58
2023/03/04 04:43:41;;;;;;;32.10;18.20;;;;;;;1.48;85.00;99832.57;107065;1259;98984;-57
2023/03/04 04:46:21;;;;;;;32.20;18.40;;;;;;;1.46;85.05;99827.98;107020;1259;88647;-62
2023/03/04 04:48:58;;;;;;;31.30;17.50;;;;;;;1.48;84.83;99829.02;107014;1258;94967;-62
2023/03/04 04:51:34;;;;;;;31.60;18.20;;;;;;;1.53;84.96;99828.91;107037;1259;79066;-61
2023/03/04 04:54:20;;;;;;;27.30;17.30;;;;;;;1.57;84.86;99826.19;107032;1258;83018;-62
2023/03/04 04:57:05;;;;;;;29.50;17.70;;;;;;;1.61;84.85;99823.52;107026;1259;97825;-62
2023/03/04 04:59:46;;;;;;;;;;;;;;;1.58;84.80;99819.73;107076;1258;88622;-64
2023/03/04 05:02:21;;;;;;;29.10;16.80;;;;;;;1.57;84.71;99822.34;107089;1258;94852;-64
2023/03/04 05:05:02;;;;;;;29.10;17.30;;;;;;;1.55;84.65;99823.92;107044;1259;81382;-62
2023/03/04 05:07:47;;;;;;;30.40;18.10;;;;;;;1.54;84.52;99821.90;107057;1258;82822;-62
2023/03/04 05:10:28;;;;;;;30.20;18.20;;;;;;;1.53;84.56;99817.60;107025;1258;98550;-55
2023/03/04 05:13:10;;;;;;;26.70;16.00;;;;;;;1.54;84.59;99815.92;107025;1258;86339;-58
2023/03/04 05:15:51;;;;;;;29.80;17.20;;;;;;;1.51;84.56;99812.42;107057;1258;93780;-57
2023/03/04 05:18:28;;;;;;;27.60;16.50;;;;;;;1.55;84.68;99809.93;107049;1259;79546;-57
2023/03/04 05:21:06;;;;;;;27.00;15.90;;;;;;;1.59;84.66;99812.83;107052;1258;82777;-63
2023/03/04 05:23:45;;;;;;;26.00;16.30;;;;;;;1.60;84.59;99810.27;107061;1258;97654;-63
2023/03/04 05:26:31;;;;;;;28.50;16.60;;;;;;;1.61;84.60;99805.04;107045;1259;87799;-62
2023/03/04 05:29:09;;;;;;;27.50;16.20;;;;;;;1.62;84.48;99807.43;107039;1258;94640;-63
2023/03/04 05:31:50;;;;;;;27.70;16.30;;;;;;;1.59;84.48;99804.55;107029;1258;78803;-64
2023/03/04 05:34:32;;;;;;;25.90;16.10;;;;;;;1.61;84.50;99799.59;106941;1259;83877;-60
2023/03/04 05:37:12;;;;;;;31.50;17.50;;;;;;;1.60;84.54;99798.58;107034;1259;97945;-59
2023/03/04 05:39:51;;;;;;;27.00;16.10;;;;;;;1.62;84.52;99801.98;107061;1259;88422;-57
2023/03/04 05:42:29;;;;;;;24.90;15.10;;;;;;;1.64;84.47;99801.20;107027;1258;94924;-57
2023/03/04 05:45:05;;;;;;;28.70;15.90;;;;;;;1.65;84.50;99801.69;107034;1259;81241;-58
2023/03/04 05:47:46;;;;;;;24.70;15.20;;;;;;;1.69;84.54;99794.64;107087;1258;82109;-60
2023/03/04 05:50:21;;;;;;;24.00;15.10;;;;;;;1.71;84.61;99790.99;107087;1258;98590;-59
2023/03/04 05:52:59;;;;;;;29.80;16.00;;;;;;;1.71;84.71;99790.38;107035;1258;85599;-59
2023/03/04 05:55:46;;;;;;;23.90;14.90;;;;;;;1.72;84.57;99786.77;107042;1259;93881;-63
2023/03/04 05:58:30;;;;;;;26.00;15.20;;;;;;;1.72;84.48;99788.05;107030;1257;80123;-63
2023/03/04 06:01:10;;;;;;;25.60;15.10;;;;;;;1.71;84.39;99789.24;107055;1258;82205;-66
2023/03/04 06:03:50;;;;;;;23.30;14.80;;;;;;;1.70;84.59;99787.02;107014;1257;98506;-65
2023/03/04 06:06:36;;;;;;;25.20;15.50;;;;;;;1.71;84.56;99781.39;107062;1259;88147;-58
2023/03/04 06:09:20;;;;;;;23.80;14.00;;;;;;;1.74;84.47;99780.20;107046;1259;95313;-57
2023/03/04 06:12:02;;;;;;;27.90;15.10;;;;;;;1.80;84.46;99778.94;107006;1259;81390;-57
2023/03/04 06:14:43;;;;;;;24.80;14.30;;;;;;;1.85;84.36;99773.61;107063;1259;82564;-60
2023/03/04 06:17:17;;;;;;;23.10;14.50;;;;;;;1.87;84.51;99768.63;107034;1259;99887;-58
2023/03/04 06:19:54;;;;;;;24.70;14.90;;;;;;;1.87;84.53;99764.77;107096;1259;88747;-59
2023/03/04 06:22:36;;;;;;;23.20;13.90;;;;;;;1.88;84.60;99767.84;107006;1258;94578;-59
2023/03/04 06:25:12;;;;;;;26.70;15.20;;;;;;;1.89;84.46;99766.52;107024;1261;80172;-58
2023/03/04 06:27:54;;;;;;;27.20;15.40;;;;;;;1.88;84.47;99768.32;107046;1259;81188;-58
2023/03/04 06:30:37;;;;;;;24.10;14.40;;;;;;;1.91;84.51;99765.25;106994;1258;97102;-62
2023/03/04 06:33:16;;;;;;;29.00;15.30;;;;;;;1.95;84.45;99759.90;107025;1259;87305;-62
2023/03/04 06:35:56;;;;;;;22.40;14.70;;;;;;;1.98;84.43;99754.07;107028;1259;93788;-57
2023/03/04 06:38:38;;;;;;;22.80;14.50;;;;;;;2.00;84.40;99753.63;107033;1258;80282;-58
2023/03/04 06:41:14;;;;;;;24.50;14.90;;;;;;;2.01;84.42;99750.51;107043;1259;83114;-59
2023/03/04 06:43:48;;;;;;;22.60;14.70;;;;;;;2.00;84.47;99757.92;107038;1259;98740;-59
2023/03/04 06:46:26;;;;;;;24.80;14.40;;;;;;;2.02;84.39;99756.70;107050;1259;88576;-57
2023/03/04 06:49:03;;;;;;;26.00;15.10;;;;;;;2.02;84.39;99749.95;107030;1258;93530;-61
2023/03/04 06:51:46;;;;;;;25.30;15.70;;;;;;;1.99;84.38;99748.95;107002;1259;80000;-63
2023/03/04 06:54:25;;;;;;;25.50;15.40;;;;;;;2.02;84.42;99754.71;107010;1259;82221;-60
2023/03/04 06:57:07;;;;;;;24.20;14.80;;;;;;;2.03;84.41;99751.63;107031;1259;99076;-59
2023/03/04 06:59:46;;;;;;;25.30;15.30;;;;;;;2.07;84.47;99749.41;107032;1259;88514;-58
2023/03/04 07:02:26;;;;;;;27.00;16.40;;;;;;;2.12;84.52;99750.48;107007;1259;94942;-55
2023/03/04 07:05:01;;;;;;;23.10;14.50;;;;;;;2.14;84.47;99752.67;107031;1258;80139;-58
2023/03/04 07:07:43;;;;;;;23.00;14.70;;;;;;;2.13;84.54;99757.13;107033;1259;82499;-59
2023/03/04 07:10:18;;;;;;;26.60;16.30;;;;;;;2.14;84.49;99760.60;107022;1258;98690;-64
2023/03/04 07:12:59;;;;;;;26.70;15.60;;;;;;;2.16;84.42;99760.28;107046;1259;88349;-63
2023/03/04 07:15:40;;;;;;;28.50;16.80;;;;;;;2.14;84.33;99760.06;107030;1259;92271;-57
2023/03/04 07:18:25;;;;;;;28.00;16.30;;;;;;;2.15;84.21;99757.47;106971;1259;82078;-59
2023/03/04 07:21:05;;;;;;;23.10;14.70;;;;;;;2.16;84.34;99758.27;107065;1259;81395;-63
2023/03/04 07:23:41;;;;;;;23.40;15.10;;;;;;;2.19;84.37;99752.69;107061;1259;98513;-59
2023/03/04 07:26:21;;;;;;;23.40;15.20;;;;;;;2.23;84.29;99753.50;107047;1259;86841;-63
2023/03/04 07:29:01;;;;;;;27.30;15.50;;;;;;;2.27;84.18;99752.20;107065;1259;93026;-63
2023/03/04 07:31:46;;;;;;;26.00;15.30;;;;;;;2.26;84.26;99751.19;107049;1259;79775;-59
2023/03/04 07:34:30;;;;;;;24.00;16.10;;;;;;;2.31;84.15;99749.84;107071;1261;82249;-58
2023/03/04 07:37:16;;;;;;;24.80;15.90;;;;;;;2.33;84.24;99751.21;107038;1259;97839;-58
2023/03/04 07:39:56;;;;;;;28.30;15.30;;;;;;;2.38;84.14;99742.40;107083;1261;88934;-64
2023/03/04 07:42:34;;;;;;;25.20;14.80;;;;;;;2.42;84.14;99738.97;107035;1259;92704;-64
2023/03/04 07:45:12;;;;;;;23.10;14.70;;;;;;;2.42;84.04;99737.00;107094;1259;78705;-56
2023/03/04 07:47:53;;;;;;;22.00;14.40;;;;;;;2.41;84.08;99739.20;107080;1259;80618;-57
2023/03/04 07:50:42;;;;;;;21.80;13.50;;;;;;;2.48;83.96;99731.98;107092;1259;97306;-53
2023/03/04 07:53:25;;;;;;;20.20;13.40;;;;;;;2.53;83.95;99728.60;107066;1259;88877;-59
2023/03/04 07:56:12;;;;;;;21.70;14.40;;;;;;;2.54;84.07;99729.08;107047;1257;94132;-63
2023/03/04 07:58:55;;;;;;;22.50;13.60;;;;;;;2.50;83.70;99724.98;107086;1259;79691;-62
2023/03/04 08:01:37;;;;;;;22.10;13.70;;;;;;;2.51;83.73;99726.31;107016;1259;81454;-58
2023/03/04 08:04:15;;;;;;;20.00;13.50;;;;;;;2.53;83.63;99722.08;106971;1259;97312;-55
2023/03/04 08:06:58;;;;;;;24.70;15.30;;;;;;;2.51;83.53;99721.33;107068;1259;88177;-48
2023/03/04 08:09:41;;;;;;;23.40;14.40;;;;;;;2.57;83.50;99723.75;107005;1259;95039;-63
2023/03/04 08:12:17;;;;;;;25.10;14.80;;;;;;;2.61;83.54;99723.17;107028;1259;81560;-62
2023/03/04 08:14:57;;;;;;;21.50;15.10;;;;;;;2.63;83.39;99719.45;107035;1261;82861;-57
2023/03/04 08:17:37;;;;;;;28.40;14.20;;;;;;;2.68;83.09;99713.39;106991;1259;99108;-57
2023/03/04 08:20:13;;;;;;;22.00;13.40;;;;;;;2.69;83.29;99718.36;107045;1259;89734;-58
2023/03/04 08:22:48;;;;;;;23.40;13.80;;;;;;;2.69;83.13;99716.42;107021;1259;92640;-58
2023/03/04 08:25:21;;;;;;;;;;;;;;;2.66;83.16;99714.11;107015;1259;81511;-61
2023/03/04 08:27:58;;;;;;;24.20;13.80;;;;;;;2.67;83.09;99712.70;107020;1259;82502;-62
2023/03/04 08:30:38;;;;;;;19.90;12.80;;;;;;;2.70;83.22;99710.83;107053;1259;98538;-64
2023/03/04 08:33:23;;;;;;;19.50;13.00;;;;;;;2.73;83.10;99710.20;106993;1259;87774;-65
2023/03/04 08:36:07;;;;;;;23.00;13.60;;;;;;;2.76;83.04;99707.61;107028;1259;93486;-56
2023/03/04 08:38:48;;;;;;;20.90;13.30;;;;;;;2.77;82.89;99706.23;107049;1259;78237;-57
2023/03/04 08:41:31;;;;;;;20.20;12.10;;;;;;;2.81;82.95;99708.80;107041;1259;82862;-63
2023/03/04 08:44:09;;;;;;;20.40;12.50;;;;;;;2.84;82.66;99702.64;107034;1259;98051;-62
2023/03/04 08:46:51;;;;;;;19.60;12.50;;;;;;;2.86;82.79;99700.31;107030;1259;87794;-63
2023/03/04 08:49:27;;;;;;;26.00;13.10;;;;;;;2.86;82.65;99700.63;107031;1259;94524;-65
2023/03/04 08:52:05;;;;;;;18.80;12.80;;;;;;;2.80;82.67;99702.63;107034;1259;81430;-64
2023/03/04 08:54:50;;;;;;;23.40;12.40;;;;;;;2.81;82.46;99698.65;107031;1259;81807;-58
2023/03/04 08:57:34;;;;;;;21.30;12.50;;;;;;;2.82;82.61;99694.98;107002;1261;99414;-56
2023/03/04 09:00:14;;;;;;;20.10;12.10;;;;;;;2.84;82.59;99696.23;106998;1259;88384;-63
2023/03/04 09:02:51;;;;;;;24.00;13.20;;;;;;;2.87;82.58;99686.88;107051;1259;94151;-62
2023/03/04 09:05:32;;;;;;;19.10;13.10;;;;;;;2.94;82.55;99680.59;107018;1258;81291;-64
2023/03/04 09:08:17;;;;;;;23.70;13.40;;;;;;;3.07;82.54;99684.38;107008;1259;82949;-64
2023/03/04 09:11:00;;;;;;;20.80;13.70;;;;;;;3.15;82.45;99684.13;107003;1261;99494;-62
2023/03/04 09:13:40;;;;;;;22.00;13.90;;;;;;;3.20;82.21;99676.09;107016;1259;88010;-63
2023/03/04 09:16:25;;;;;;;21.60;12.80;;;;;;;3.16;81.76;99669.26;106996;1259;94343;-61
2023/03/04 09:19:10;;;;;;;21.40;12.90;;;;;;;3.19;81.98;99672.53;107033;1259;81840;-57
2023/03/04 09:21:47;;;;;;;20.90;12.70;;;;;;;3.24;81.90;99668.41;107042;1259;82612;-64
2023/03/04 09:24:28;;;;;;;20.90;11.90;;;;;;;3.30;81.86;99666.21;107033;1259;100285;-59
2023/03/04 09:27:05;;;;;;;20.20;12.90;;;;;;;3.30;82.11;99667.38;107061;1261;88193;-63
2023/03/04 09:29:47;;;;;;;19.60;11.30;;;;;;;3.34;82.08;99668.94;107040;1261;94502;-49
2023/03/04 09:32:29;;;;;;;19.40;12.50;;;;;;;3.28;81.96;99670.27;107024;1259;79890;-57
2023/03/04 09:35:04;;;;;;;21.20;12.80;;;;;;;3.30;81.98;99667.20;107059;1259;83313;-63
2023/03/04 09:37:39;;;;;;;19.90;12.80;;;;;;;3.30;81.53;99662.48;107038;1259;97987;-63
2023/03/04 09:40:21;;;;;;;22.60;12.50;;;;;;;3.26;81.71;99668.34;107073;1259;89396;-57
2023/03/04 09:43:05;;;;;;;19.60;12.70;;;;;;;3.25;81.75;99665.42;107003;1258;95446;-56
2023/03/04 09:45:44;;;;;;;24.00;11.70;;;;;;;3.24;81.74;99660.26;107018;1259;78797;-64
2023/03/04 09:48:29;;;;;;;21.10;11.90;;;;;;;3.29;81.53;99657.66;107003;1259;82556;-63
2023/03/04 09:51:24;;;;;;;23.20;12.50;;;;;;;3.28;81.60;99656.80;107027;1259;99068;-64
2023/03/04 09:54:18;;;;;;;20.90;11.50;;;;;;;3.26;81.70;99656.98;107009;1259;87442;-61
2023/03/04 09:57:24;;;;;;;25.80;11.90;;;;;;;3.25;81.65;99655.35;107034;1260;95394;-62
2023/03/04 10:00:18;;;;;;;20.60;11.00;;;;;;;3.30;81.63;99657.07;107001;1259;79471;-62
2023/03/04 10:03:21;;;;;;;24.30;12.40;;;;;;;3.33;81.61;99648.40;107037;1258;82363;-63
2023/03/04 10:06:07;;;;;;;21.40;12.30;;;;;;;3.35;81.78;99640.74;107050;1259;98408;-60
2023/03/04 10:08:53;;;;;;;21.00;11.80;;;;;;;3.38;81.68;99643.21;107037;1259;88674;-59
2023/03/04 10:11:36;;;;;;;20.40;11.00;;;;;;;3.37;81.69;99634.45;107032;1258;95588;-64
2023/03/04 10:14:34;;;;;;;23.30;11.70;;;;;;;3.42;81.64;99637.84;107034;1259;78631;-63
2023/03/04 10:17:17;;;;;;;22.30;11.60;;;;;;;3.44;81.74;99634.73;107040;1259;82544;-62
2023/03/04 10:20:02;;;;;;;24.30;11.90;;;;;;;3.53;81.80;99626.48;107039;1259;97037;-62
2023/03/04 10:22:45;;;;;;;24.20;12.80;;;;;;;3.62;81.75;99624.83;107035;1259;86792;-61
2023/03/04 10:25:24;;;;;;;20.20;12.80;;;;;;;3.68;81.67;99626.65;107053;1260;94081;-57
2023/03/04 10:28:03;;;;;;;21.50;12.00;;;;;;;3.75;81.71;99622.81;107016;1258;81400;-56
2023/03/04 10:30:50;;;;;;;19.40;11.00;;;;;;;3.79;81.44;99617.31;107051;1259;81348;-64
2023/03/04 10:33:29;;;;;;;20.00;12.40;;;;;;;3.76;81.11;99614.56;107032;1259;97656;-62
2023/03/04 10:36:24;;;;;;;20.80;11.80;;;;;;;3.73;81.32;99609.52;107025;1258;88219;-61
2023/03/04 10:39:08;;;;;;;21.60;11.50;;;;;;;3.77;81.67;99606.25;107014;1259;95576;-62
2023/03/04 10:41:56;;;;;;;20.90;10.30;;;;;;;3.80;81.74;99610.20;107042;1259;77717;-54
2023/03/04 10:44:37;;;;;;;22.80;11.70;;;;;;;3.79;81.77;99606.23;107057;1261;83089;-59
2023/03/04 10:47:17;;;;;;;21.30;11.40;;;;;;;3.78;81.99;99600.94;107092;1259;98493;-65
2023/03/04 10:49:58;;;;;;;19.60;11.50;;;;;;;3.80;81.73;99597.88;107028;1259;88885;-64
2023/03/04 10:52:36;;;;;;;21.40;11.50;;;;;;;3.76;81.99;99592.66;106988;1259;92118;-64
2023/03/04 10:55:20;;;;;;;24.40;11.60;;;;;;;3.77;82.15;99596.14;107004;1259;80842;-58
2023/03/04 10:58:03;;;;;;;21.30;11.50;;;;;;;3.84;82.19;99597.50;107044;1259;82222;-58
2023/03/04 11:00:39;;;;;;;24.10;12.30;;;;;;;3.86;82.17;99592.11;107038;1259;97947;-58
2023/03/04 11:03:36;;;;;;;21.50;11.20;;;;;;;3.81;82.33;99590.90;107048;1259;87018;-59
2023/03/04 11:06:22;;;;;;;20.40;10.80;;;;;;;3.85;82.56;99591.67;106988;1259;93983;-62
2023/03/04 11:09:03;;;;;;;20.00;11.50;;;;;;;3.86;82.65;99588.57;106971;1258;78639;-65
2023/03/04 11:11:45;;;;;;;24.00;12.10;;;;;;;3.82;82.83;99585.95;107084;1259;82017;-61
2023/03/04 11:14:27;;;;;;;22.50;11.40;;;;;;;3.83;82.95;99584.29;107044;1258;97523;-62
2023/03/04 11:17:23;;;;;;;20.90;11.30;;;;;;;3.80;82.84;99583.47;107027;1259;87651;-64
2023/03/04 11:20:13;;;;;;;19.40;10.40;;;;;;;3.76;83.12;99582.02;107013;1259;94478;-57
2023/03/04 11:22:55;;;;;;;22.30;10.10;;;;;;;3.70;83.13;99582.64;107001;1259;80224;-55
2023/03/04 11:25:35;;;;;;;19.60;10.90;;;;;;;3.74;83.17;99580.81;106976;1259;79799;-63
2023/03/04 11:28:18;;;;;;;18.90;10.50;;;;;;;3.73;83.26;99574.47;106972;1259;99109;-62
2023/03/04 11:31:01;;;;;;;18.40;10.00;;;;;;;3.73;83.48;99570.73;106998;1259;88349;-56
2023/03/04 11:33:45;;;;;;;16.90;10.30;;;;;;;3.78;83.44;99565.95;106961;1263;93360;-58
2023/03/04 11:36:51;;;;;;;16.60;10.20;;;;;;;3.78;83.67;99568.42;107033;1259;78523;-64
2023/03/04 11:39:37;;;;;;;15.80;9.60;;;;;;;3.78;83.65;99567.02;107009;1259;82558;-65
2023/03/04 11:42:29;;;;;;;19.50;11.30;;;;;;;3.72;83.65;99569.73;107031;1259;97608;-57
2023/03/04 11:45:14;;;;;;;16.60;10.60;;;;;;;3.75;83.86;99568.34;107065;1263;87597;-62
2023/03/04 11:47:58;;;;;;;;;;;;;;;3.77;84.02;99571.02;107029;1259;92218;-62
2023/03/04 11:50:46;;;;;;;20.00;11.10;;;;;;;3.77;84.02;99571.52;107060;1259;81740;-63
2023/03/04 11:53:42;;;;;;;16.00;10.00;;;;;;;3.94;84.27;99569.27;106998;1263;82652;-62
2023/03/04 11:56:38;;;;;;;20.40;10.70;;;;;;;4.14;84.28;99569.38;106994;1259;98680;-56
2023/03/04 11:59:49;;;;;;;18.40;10.70;;;;;;;4.25;84.19;99568.73;106990;1259;87756;-58
2023/03/04 12:02:33;;;;;;;14.30;9.40;;;;;;;4.22;84.14;99571.71;106985;1259;94825;-56
2023/03/04 12:05:33;;;;;;;16.30;10.40;;;;;;;4.17;84.03;99571.31;107027;1263;79798;-62
2023/03/04 12:08:34;;;;;;;16.10;10.40;;;;;;;4.16;84.21;99576.75;107050;1259;82331;-63
2023/03/04 12:11:19;;;;;;;18.60;11.00;;;;;;;4.09;84.01;99572.59;107022;1259;99203;-63
2023/03/04 12:14:21;;;;;;;19.10;10.70;;;;;;;4.01;84.15;99576.13;106993;1259;89436;-62
2023/03/04 12:17:31;;;;;;;16.80;10.60;;;;;;;3.91;84.34;99573.20;106954;1263;94545;-64
2023/03/04 12:20:35;;;;;;;19.70;10.60;;;;;;;3.88;84.24;99578.48;107012;1259;81439;-58
2023/03/04 12:23:31;;;;;;;16.10;10.90;;;;;;;3.85;84.37;99577.64;107052;1259;81144;-59
2023/03/04 12:26:18;;;;;;;20.80;11.30;;;;;;;3.75;84.61;99579.84;107031;1262;97688;-59